Time;durP1;ratioP1;P1;durP2;ratioP2;P2;SDS_P1;SDS_P2;PMS_P1;PMS_P2;Temp;Humidity;BMP_temperature;BMP_pressure;BME280_temperature;BME280_humidity;BME280_pressure;Samples;Min_cycle;Max_cycle;Signal;HPM_P1;HPM_P2
2021/11/23 00:00:18;;;;;;;2.35;1.50;;;-1.30;99.90;;;;;;5032977;28;20029;-42
2021/11/23 00:02:44;;;;;;;3.53;2.08;;;-1.30;99.90;;;;;;5032604;28;20048;-42
2021/11/23 00:05:12;;;;;;;3.83;1.98;;;-1.20;99.90;;;;;;5031442;28;20047;-42
2021/11/23 00:07:37;;;;;;;5.70;2.75;;;-1.20;99.90;;;;;;5032648;28;20049;-43
2021/11/23 00:10:04;;;;;;;3.30;1.65;;;-1.20;99.90;;;;;;5032739;28;20436;-41
2021/11/23 00:12:30;;;;;;;3.53;1.30;;;-1.20;99.90;;;;;;5032809;28;20045;-44
2021/11/23 00:14:55;;;;;;;6.13;2.65;;;-1.20;99.90;;;;;;5032568;28;20064;-42
2021/11/23 00:17:21;;;;;;;3.88;1.90;;;-1.20;99.90;;;;;;5032477;28;20060;-42
2021/11/23 00:19:46;;;;;;;5.43;2.28;;;-1.20;99.90;;;;;;5031334;28;20037;-42
2021/11/23 00:22:12;;;;;;;7.45;2.30;;;-1.10;99.90;;;;;;5032551;28;20319;-42
2021/11/23 00:24:38;;;;;;;2.85;1.63;;;-1.20;99.90;;;;;;5032760;28;20353;-42
2021/11/23 00:27:04;;;;;;;6.22;1.77;;;-1.10;99.90;;;;;;5032361;28;20036;-42
2021/11/23 00:29:30;;;;;;;5.05;2.15;;;-1.10;99.90;;;;;;5032449;28;20030;-42
2021/11/23 00:31:56;;;;;;;5.03;2.25;;;-1.10;99.90;;;;;;5032051;28;20067;-42
2021/11/23 00:34:21;;;;;;;5.25;1.88;;;-1.10;99.90;;;;;;5030937;28;20045;-42
2021/11/23 00:36:47;;;;;;;3.83;1.92;;;-1.10;99.90;;;;;;5032282;28;20025;-42
2021/11/23 00:39:14;;;;;;;2.95;1.70;;;-1.10;99.90;;;;;;5032457;28;20068;-42
2021/11/23 00:41:39;;;;;;;5.15;1.88;;;-1.10;99.90;;;;;;5032189;28;20026;-42
2021/11/23 00:44:05;;;;;;;4.63;2.22;;;-1.10;99.90;;;;;;5031996;28;20057;-41
2021/11/23 00:46:30;;;;;;;6.63;2.25;;;-1.00;99.90;;;;;;5031950;28;20036;-42
2021/11/23 00:48:56;;;;;;;3.08;2.00;;;-1.00;99.90;;;;;;5030726;28;20034;-41
2021/11/23 00:51:21;;;;;;;3.33;1.83;;;-1.00;99.90;;;;;;5032045;28;20071;-43
2021/11/23 00:53:47;;;;;;;6.30;2.20;;;-1.00;99.90;;;;;;5032235;28;20033;-41
2021/11/23 00:56:13;;;;;;;5.63;2.22;;;-1.00;99.90;;;;;;5032100;28;20104;-42
2021/11/23 00:58:38;;;;;;;5.15;2.13;;;-1.00;99.90;;;;;;5031960;28;20037;-42
2021/11/23 01:01:04;;;;;;;5.45;2.33;;;-0.90;99.90;;;;;;5032052;28;20036;-41
2021/11/23 01:03:32;;;;;;;3.95;1.92;;;-0.90;99.90;;;;;;5030787;28;20017;-42
2021/11/23 01:06:01;;;;;;;6.55;2.75;;;-0.90;99.90;;;;;;5031752;28;20032;-42
2021/11/23 01:08:27;;;;;;;3.72;1.85;;;-0.90;99.90;;;;;;5031940;28;20025;-42
2021/11/23 01:10:53;;;;;;;4.60;1.83;;;-0.90;99.90;;;;;;5032075;28;20026;-45
2021/11/23 01:13:19;;;;;;;4.13;2.03;;;-0.90;99.90;;;;;;5031866;28;20026;-41
2021/11/23 01:15:45;;;;;;;3.33;1.90;;;-0.90;99.90;;;;;;5031540;28;20112;-43
2021/11/23 01:18:12;;;;;;;6.38;2.17;;;-0.90;99.90;;;;;;5032062;28;20072;-44
2021/11/23 01:20:38;;;;;;;4.32;2.30;;;-1.00;99.90;;;;;;5029213;28;20029;-42
2021/11/23 01:23:04;;;;;;;5.78;2.50;;;-0.90;99.90;;;;;;5031676;28;20025;-42
2021/11/23 01:25:30;;;;;;;5.30;2.00;;;-0.90;99.90;;;;;;5031869;28;20018;-42
2021/11/23 01:27:56;;;;;;;5.55;2.63;;;-0.90;99.90;;;;;;5032369;28;20091;-41
2021/11/23 01:30:23;;;;;;;7.82;2.90;;;-0.90;99.90;;;;;;5032429;28;20022;-42
2021/11/23 01:32:48;;;;;;;4.88;2.55;;;-0.90;99.90;;;;;;5032449;28;20033;-42
2021/11/23 01:35:14;;;;;;;6.68;2.67;;;-0.90;99.90;;;;;;5031037;28;20049;-42
2021/11/23 01:37:42;;;;;;;6.63;2.92;;;-0.90;99.90;;;;;;5032448;28;20029;-41
2021/11/23 01:40:10;;;;;;;5.07;2.80;;;-0.90;99.90;;;;;;5032406;28;20013;-42
2021/11/23 01:42:36;;;;;;;5.53;2.95;;;-0.90;99.90;;;;;;5032622;28;20029;-42
2021/11/23 01:45:03;;;;;;;5.85;3.03;;;-0.80;99.90;;;;;;5032180;28;20041;-42
2021/11/23 01:47:28;;;;;;;8.07;3.80;;;-0.80;99.90;;;;;;5032395;28;20029;-41
2021/11/23 01:49:54;;;;;;;6.68;3.03;;;-0.70;99.90;;;;;;5030997;28;20446;-41
2021/11/23 01:52:20;;;;;;;6.68;3.10;;;-0.70;99.90;;;;;;5032301;28;20463;-42
2021/11/23 01:54:46;;;;;;;6.07;2.92;;;-0.60;99.90;;;;;;5032294;28;20100;-42
2021/11/23 01:57:12;;;;;;;5.53;2.83;;;-0.60;99.90;;;;;;5032222;28;20272;-42
2021/11/23 01:59:37;;;;;;;5.38;3.15;;;-0.60;99.90;;;;;;5032171;28;20026;-41
2021/11/23 02:02:03;;;;;;;6.90;3.75;;;-0.50;99.90;;;;;;5033198;28;20021;-42
2021/11/23 02:04:29;;;;;;;8.13;3.10;;;-0.50;99.90;;;;;;5034719;28;20075;-42
2021/11/23 02:06:54;;;;;;;7.45;3.92;;;-0.50;99.90;;;;;;5035865;28;20029;-41
2021/11/23 02:09:20;;;;;;;5.88;3.80;;;-0.40;99.90;;;;;;5036157;28;20029;-42
2021/11/23 02:11:45;;;;;;;6.30;3.20;;;-0.40;99.90;;;;;;5035892;28;20029;-41
2021/11/23 02:14:11;;;;;;;8.88;4.13;;;-0.30;99.90;;;;;;5035525;28;21064;-42
2021/11/23 02:16:37;;;;;;;9.35;3.25;;;-0.30;99.90;;;;;;5035809;28;20038;-42
2021/11/23 02:19:04;;;;;;;7.50;3.53;;;-0.30;99.90;;;;;;5034348;28;20032;-42
2021/11/23 02:21:30;;;;;;;9.18;4.20;;;-0.30;99.90;;;;;;5035947;28;20021;-42
2021/11/23 02:23:56;;;;;;;12.00;4.88;;;-0.20;99.90;;;;;;5035560;28;20049;-41
2021/11/23 02:26:21;;;;;;;9.02;4.15;;;-0.20;99.90;;;;;;5035444;28;20057;-42
2021/11/23 02:28:47;;;;;;;9.52;4.68;;;-0.20;99.90;;;;;;5035366;28;20083;-42
2021/11/23 02:31:13;;;;;;;6.95;3.97;;;-0.20;99.90;;;;;;5035460;28;20028;-42
2021/11/23 02:33:39;;;;;;;7.97;4.50;;;-0.20;99.90;;;;;;5034060;28;20050;-42
2021/11/23 02:36:09;;;;;;;8.23;4.45;;;-0.20;99.90;;;;;;5035210;28;20041;-42
2021/11/23 02:38:36;;;;;;;9.93;4.50;;;-0.20;99.90;;;;;;5035323;28;20025;-41
2021/11/23 02:41:03;;;;;;;7.93;4.65;;;-0.10;99.90;;;;;;5035211;28;20075;-41
2021/11/23 02:43:28;;;;;;;11.55;5.30;;;-0.10;99.90;;;;;;5035081;28;20033;-39
2021/11/23 02:45:54;;;;;;;8.93;5.18;;;-0.10;99.90;;;;;;5035047;28;20041;-40
2021/11/23 02:48:21;;;;;;;7.93;4.55;;;-0.10;99.90;;;;;;5033851;28;20025;-39
2021/11/23 02:50:59;;;;;;;10.30;4.90;;;0.00;99.90;;;;;;5035087;28;20503;-39
2021/11/23 02:53:24;;;;;;;10.88;5.68;;;0.00;99.90;;;;;;5035039;28;20526;-39
2021/11/23 02:55:50;;;;;;;15.00;5.25;;;0.10;99.90;;;;;;5034821;28;20029;-41
2021/11/23 02:58:16;;;;;;;11.25;5.53;;;0.10;99.90;;;;;;5034765;28;20276;-39
2021/11/23 03:00:44;;;;;;;13.43;6.03;;;0.20;99.90;;;;;;5034928;28;20385;-39
2021/11/23 03:03:10;;;;;;;11.52;5.45;;;0.20;99.90;;;;;;5034930;28;20136;-39
2021/11/23 03:05:35;;;;;;;15.82;6.53;;;0.30;99.90;;;;;;5033572;28;20104;-39
2021/11/23 03:08:01;;;;;;;21.10;6.95;;;0.40;99.90;;;;;;5034744;28;20032;-39
2021/11/23 03:10:29;;;;;;;16.83;6.55;;;0.40;99.90;;;;;;5034719;28;20033;-40
2021/11/23 03:12:56;;;;;;;12.60;6.20;;;0.50;99.90;;;;;;5034085;28;20068;-39
2021/11/23 03:15:23;;;;;;;12.45;6.97;;;0.60;99.90;;;;;;5034099;28;20042;-39
2021/11/23 03:17:48;;;;;;;11.85;5.90;;;0.60;99.90;;;;;;5034660;28;20115;-39
2021/11/23 03:20:17;;;;;;;13.32;6.63;;;0.70;99.90;;;;;;5033341;28;20066;-40
2021/11/23 03:22:43;;;;;;;15.07;6.68;;;0.90;99.90;;;;;;5034570;28;20013;-40
2021/11/23 03:25:09;;;;;;;11.93;5.45;;;1.00;99.90;;;;;;5034305;28;20029;-39
2021/11/23 03:27:35;;;;;;;12.05;6.00;;;1.00;99.90;;;;;;5034450;28;20427;-39
2021/11/23 03:30:03;;;;;;;14.32;6.40;;;1.10;99.90;;;;;;5034432;28;20072;-39
2021/11/23 03:32:28;;;;;;;13.70;6.10;;;1.20;99.90;;;;;;5034125;28;20038;-40
2021/11/23 03:34:54;;;;;;;10.45;5.60;;;1.30;99.90;;;;;;5032670;28;20382;-39
2021/11/23 03:37:22;;;;;;;10.20;5.85;;;1.40;99.90;;;;;;5034074;28;20461;-39
2021/11/23 03:39:50;;;;;;;13.23;6.05;;;1.50;99.90;;;;;;5034058;28;20021;-38
2021/11/23 03:42:16;;;;;;;10.30;5.32;;;1.60;99.90;;;;;;5033969;28;20076;-39
2021/11/23 03:44:42;;;;;;;12.15;6.53;;;1.60;99.90;;;;;;5034133;28;20025;-39
2021/11/23 03:47:09;;;;;;;10.63;6.32;;;1.70;99.90;;;;;;5033883;28;20025;-40
2021/11/23 03:49:36;;;;;;;13.88;6.18;;;1.80;99.90;;;;;;5032742;28;20507;-41
2021/11/23 03:52:04;;;;;;;8.98;5.57;;;1.90;99.90;;;;;;5034226;28;20053;-39
2021/11/23 03:54:30;;;;;;;10.10;6.03;;;1.90;99.90;;;;;;5033882;28;20056;-39
2021/11/23 03:56:55;;;;;;;9.98;5.95;;;1.90;99.90;;;;;;5033868;28;20061;-39
2021/11/23 03:59:21;;;;;;;13.35;7.10;;;2.00;99.90;;;;;;5033602;28;20037;-39
2021/11/23 04:01:47;;;;;;;12.90;5.97;;;2.00;99.90;;;;;;5034035;28;20192;-39
2021/11/23 04:04:13;;;;;;;10.63;5.78;;;2.10;99.90;;;;;;5032644;28;20036;-39
2021/11/23 04:06:39;;;;;;;13.23;6.50;;;2.10;99.90;;;;;;5033646;28;20025;-39
2021/11/23 04:09:05;;;;;;;10.77;6.40;;;2.20;99.90;;;;;;5030018;28;20025;-39
2021/11/23 04:11:31;;;;;;;10.88;6.45;;;2.20;99.90;;;;;;5033601;28;20018;-39
2021/11/23 04:13:57;;;;;;;11.52;7.18;;;2.20;99.90;;;;;;5033554;28;20021;-39
2021/11/23 04:16:23;;;;;;;12.60;7.85;;;2.30;99.90;;;;;;5033479;28;20097;-38
2021/11/23 04:18:52;;;;;;;12.25;6.60;;;2.30;99.90;;;;;;5032191;28;20017;-39
2021/11/23 04:21:19;;;;;;;10.32;5.68;;;2.30;99.90;;;;;;5033147;28;20034;-39
2021/11/23 04:23:45;;;;;;;11.55;5.97;;;2.30;99.90;;;;;;5033330;28;20397;-39
2021/11/23 04:26:11;;;;;;;15.45;7.57;;;2.30;99.90;;;;;;5032939;28;20384;-42
2021/11/23 04:28:37;;;;;;;11.88;6.90;;;2.30;99.90;;;;;;5033297;28;20078;-42
2021/11/23 04:31:03;;;;;;;13.35;6.50;;;2.30;99.90;;;;;;5033362;28;20109;-42
2021/11/23 04:33:28;;;;;;;13.07;7.00;;;2.30;99.90;;;;;;5032046;28;20054;-42
2021/11/23 04:35:55;;;;;;;12.85;6.75;;;2.40;99.90;;;;;;5033147;28;20028;-42
2021/11/23 04:38:22;;;;;;;16.70;8.63;;;2.40;99.90;;;;;;5033021;28;20018;-42
2021/11/23 04:40:48;;;;;;;12.32;6.90;;;2.40;99.90;;;;;;5033158;28;20030;-42
2021/11/23 04:43:13;;;;;;;15.40;6.53;;;2.40;99.90;;;;;;5032969;28;20079;-42
2021/11/23 04:45:39;;;;;;;10.82;6.55;;;2.50;99.90;;;;;;5032995;28;20029;-42
2021/11/23 04:48:05;;;;;;;11.48;6.63;;;2.50;99.90;;;;;;5032920;28;20396;-42
2021/11/23 04:50:32;;;;;;;8.07;5.68;;;2.60;99.90;;;;;;5031625;28;20036;-40
2021/11/23 04:52:57;;;;;;;14.77;7.07;;;2.60;99.90;;;;;;5032978;28;20112;-40
2021/11/23 04:55:23;;;;;;;10.25;6.63;;;2.70;99.90;;;;;;5032856;28;20228;-40
2021/11/23 04:57:49;;;;;;;11.23;6.13;;;2.70;99.90;;;;;;5032907;28;20029;-39
2021/11/23 05:00:17;;;;;;;12.70;6.25;;;2.70;99.90;;;;;;5032615;28;20036;-40
2021/11/23 05:02:43;;;;;;;13.68;6.65;;;2.80;99.90;;;;;;5032851;28;20040;-39
2021/11/23 05:05:10;;;;;;;15.48;6.70;;;2.80;99.90;;;;;;5028003;28;20435;-41
2021/11/23 05:07:37;;;;;;;13.45;7.57;;;2.80;99.90;;;;;;5032488;28;20165;-39
2021/11/23 05:10:05;;;;;;;15.30;7.13;;;2.80;99.90;;;;;;5032550;28;20100;-42
2021/11/23 05:12:30;;;;;;;11.65;6.00;;;2.90;99.90;;;;;;5031911;28;20018;-39
2021/11/23 05:14:56;;;;;;;12.30;5.80;;;2.90;99.90;;;;;;5032540;28;20076;-39
2021/11/23 05:17:22;;;;;;;11.32;7.05;;;2.90;99.90;;;;;;5032324;28;20029;-39
2021/11/23 05:19:47;;;;;;;11.68;6.78;;;2.90;99.90;;;;;;5031607;28;20066;-45
2021/11/23 05:22:13;;;;;;;12.98;7.13;;;3.00;99.90;;;;;;5032235;28;20056;-46
2021/11/23 05:24:38;;;;;;;13.07;7.68;;;3.00;99.90;;;;;;5032464;28;20096;-42
2021/11/23 05:27:04;;;;;;;13.18;7.50;;;3.10;99.90;;;;;;5032286;28;20552;-42
2021/11/23 05:29:30;;;;;;;15.57;7.78;;;3.10;99.90;;;;;;5032248;28;20044;-43
2021/11/23 05:31:55;;;;;;;16.17;7.20;;;3.10;99.90;;;;;;5032653;28;20064;-46
2021/11/23 05:34:21;;;;;;;13.13;7.18;;;3.10;99.90;;;;;;5031061;28;20045;-44
2021/11/23 05:36:46;;;;;;;13.35;6.20;;;3.20;99.90;;;;;;5033027;28;20108;-42
2021/11/23 05:39:13;;;;;;;13.40;6.75;;;3.20;99.90;;;;;;5036225;28;20033;-45
2021/11/23 05:41:39;;;;;;;16.58;7.18;;;3.20;99.90;;;;;;5036137;28;20033;-45
2021/11/23 05:44:05;;;;;;;16.65;7.82;;;3.30;99.90;;;;;;5036219;28;20040;-42
2021/11/23 05:46:31;;;;;;;14.50;7.35;;;3.30;99.90;;;;;;5035925;28;20053;-42
2021/11/23 05:48:57;;;;;;;16.23;7.32;;;3.30;99.90;;;;;;5034463;28;20392;-48
2021/11/23 05:51:23;;;;;;;13.15;6.68;;;3.40;99.90;;;;;;5035740;28;20038;-42
2021/11/23 05:53:49;;;;;;;16.80;7.28;;;3.40;99.90;;;;;;5035995;28;20028;-42
2021/11/23 05:56:14;;;;;;;14.07;6.95;;;3.40;99.90;;;;;;5035920;28;20025;-46
2021/11/23 05:58:40;;;;;;;15.07;6.07;;;3.50;99.90;;;;;;5035974;28;20021;-42
2021/11/23 06:01:06;;;;;;;13.18;7.13;;;3.50;99.90;;;;;;5035994;28;20037;-43
2021/11/23 06:03:32;;;;;;;25.65;8.10;;;3.50;99.90;;;;;;5034957;28;20457;-45
2021/11/23 06:05:58;;;;;;;20.95;8.32;;;3.60;99.90;;;;;;5036129;28;20060;-42
2021/11/23 06:08:23;;;;;;;18.95;8.25;;;3.60;99.90;;;;;;5035767;28;20465;-42
2021/11/23 06:10:49;;;;;;;18.65;7.93;;;3.70;99.90;;;;;;5035945;28;20064;-42
2021/11/23 06:13:15;;;;;;;20.63;8.15;;;3.70;99.90;;;;;;5035996;28;20457;-42
2021/11/23 06:15:44;;;;;;;17.08;7.30;;;3.70;99.90;;;;;;5035712;28;20075;-42
2021/11/23 06:18:13;;;;;;;18.25;8.18;;;3.70;99.90;;;;;;5034992;28;20100;-42
2021/11/23 06:20:39;;;;;;;14.10;7.85;;;3.70;99.90;;;;;;5035460;28;20018;-42
2021/11/23 06:23:05;;;;;;;20.27;8.70;;;3.80;99.90;;;;;;5035712;28;20484;-39
2021/11/23 06:25:30;;;;;;;16.40;7.82;;;3.80;99.90;;;;;;5016398;28;20034;-39
2021/11/23 06:27:56;;;;;;;21.42;8.82;;;3.80;99.90;;;;;;5015444;28;20092;-43
2021/11/23 06:30:23;;;;;;;20.85;8.13;;;3.90;99.90;;;;;;5050872;28;20029;-40
2021/11/23 06:32:49;;;;;;;13.60;6.93;;;3.90;99.90;;;;;;5053540;28;20091;-41
2021/11/23 06:35:15;;;;;;;21.25;9.23;;;4.00;99.90;;;;;;5052949;28;20327;-40
2021/11/23 06:37:41;;;;;;;16.85;9.02;;;4.00;99.90;;;;;;5053781;28;20078;-42
2021/11/23 06:40:09;;;;;;;17.15;9.10;;;4.00;99.90;;;;;;5053794;28;20041;-42
2021/11/23 06:42:35;;;;;;;18.17;10.18;;;4.00;99.90;;;;;;5053530;28;20029;-39
2021/11/23 06:45:00;;;;;;;16.75;8.35;;;4.10;99.90;;;;;;5045721;28;20052;-42
2021/11/23 06:47:26;;;;;;;22.88;9.35;;;4.10;99.90;;;;;;5033119;28;20492;-39
2021/11/23 06:49:52;;;;;;;22.92;9.85;;;4.10;99.90;;;;;;5031581;28;20029;-41
2021/11/23 06:52:19;;;;;;;27.50;11.25;;;4.20;99.90;;;;;;5033538;28;20049;-41
2021/11/23 06:54:45;;;;;;;28.30;12.75;;;4.20;99.90;;;;;;5033669;28;20026;-42
2021/11/23 06:57:11;;;;;;;24.95;12.13;;;4.20;99.90;;;;;;5033557;28;20040;-42
2021/11/23 06:59:38;;;;;;;17.33;9.02;;;4.20;99.90;;;;;;5033364;28;20029;-42
2021/11/23 07:02:04;;;;;;;23.10;10.75;;;4.30;99.90;;;;;;5033590;28;20022;-44
2021/11/23 07:04:30;;;;;;;19.40;9.73;;;4.30;99.90;;;;;;5032721;28;20045;-41
2021/11/23 07:06:55;;;;;;;21.98;11.30;;;4.30;99.90;;;;;;5033389;28;20028;-41
2021/11/23 07:09:21;;;;;;;28.45;13.25;;;4.40;99.90;;;;;;5033050;28;20021;-42
2021/11/23 07:11:46;;;;;;;24.25;11.55;;;4.40;99.90;;;;;;5032450;28;20080;-44
2021/11/23 07:14:12;;;;;;;23.10;11.35;;;4.40;99.90;;;;;;5033119;28;20087;-44
2021/11/23 07:16:39;;;;;;;24.55;10.65;;;4.40;99.90;;;;;;5033012;28;20067;-41
2021/11/23 07:19:04;;;;;;;28.35;11.60;;;4.50;99.90;;;;;;5032075;28;20208;-41
2021/11/23 07:21:30;;;;;;;26.13;11.20;;;4.50;99.90;;;;;;5032980;28;20029;-42
2021/11/23 07:23:57;;;;;;;25.90;12.25;;;4.50;99.90;;;;;;5033202;28;20041;-42
2021/11/23 07:26:23;;;;;;;19.90;10.40;;;4.50;99.90;;;;;;5033029;28;20041;-40
2021/11/23 07:28:49;;;;;;;22.23;10.63;;;4.60;99.90;;;;;;5032988;28;20041;-42
2021/11/23 07:31:15;;;;;;;23.33;9.80;;;4.60;99.90;;;;;;5032910;28;20472;-41
2021/11/23 07:33:40;;;;;;;21.35;9.23;;;4.70;99.90;;;;;;5031432;28;20053;-42
2021/11/23 07:36:06;;;;;;;26.83;11.63;;;4.70;99.90;;;;;;5032931;28;20116;-43
2021/11/23 07:38:31;;;;;;;27.75;10.25;;;4.70;99.90;;;;;;5032790;28;20083;-41
2021/11/23 07:40:57;;;;;;;21.10;9.02;;;4.80;99.90;;;;;;5032821;28;20034;-44
2021/11/23 07:43:22;;;;;;;24.52;9.13;;;4.80;99.90;;;;;;5032344;28;20539;-41
2021/11/23 07:45:48;;;;;;;27.25;10.38;;;4.80;99.90;;;;;;5032604;28;20117;-42
2021/11/23 07:48:14;;;;;;;17.02;8.40;;;4.80;99.90;;;;;;5031464;28;20036;-41
2021/11/23 07:50:41;;;;;;;18.55;9.15;;;4.90;99.90;;;;;;5032626;28;20022;-42
2021/11/23 07:53:08;;;;;;;21.42;10.35;;;4.90;99.90;;;;;;5032543;28;20424;-41
2021/11/23 07:55:34;;;;;;;21.73;9.23;;;4.90;99.90;;;;;;5032495;28;20412;-42
2021/11/23 07:58:00;;;;;;;18.10;8.65;;;5.00;99.90;;;;;;5032541;28;20025;-42
2021/11/23 08:00:26;;;;;;;16.35;9.32;;;5.00;99.90;;;;;;5031742;28;20065;-44
2021/11/23 08:02:52;;;;;;;18.33;8.93;;;5.10;99.90;;;;;;5032488;28;20026;-41
2021/11/23 08:05:17;;;;;;;19.40;9.70;;;5.10;99.90;;;;;;5031196;28;20032;-41
2021/11/23 08:07:43;;;;;;;16.80;8.00;;;5.10;99.90;;;;;;5032153;28;20105;-41
2021/11/23 08:10:09;;;;;;;19.48;9.30;;;5.10;99.90;;;;;;5032289;28;20025;-41
2021/11/23 08:12:34;;;;;;;26.25;10.50;;;5.10;99.90;;;;;;5032265;28;20104;-43
2021/11/23 08:15:00;;;;;;;62.40;21.60;;;5.20;99.90;;;;;;5032074;28;20017;-41
2021/11/23 08:17:26;;;;;;;25.13;10.60;;;5.20;99.90;;;;;;5032070;28;20029;-42
2021/11/23 08:19:52;;;;;;;25.85;11.32;;;5.30;99.90;;;;;;5030782;28;20031;-42
2021/11/23 08:22:18;;;;;;;21.00;10.70;;;5.40;99.90;;;;;;5032051;28;20057;-41
2021/11/23 08:24:43;;;;;;;17.77;8.82;;;5.40;99.90;;;;;;5031826;28;20082;-42
2021/11/23 08:27:09;;;;;;;16.65;9.20;;;5.40;99.90;;;;;;5031835;28;20022;-42
2021/11/23 08:29:35;;;;;;;20.08;9.57;;;5.40;99.90;;;;;;5031829;28;20030;-42
2021/11/23 08:32:02;;;;;;;14.98;7.93;;;5.50;99.90;;;;;;5031587;28;20381;-41
2021/11/23 08:34:28;;;;;;;12.98;7.18;;;5.60;99.90;;;;;;5030637;28;20112;-41
2021/11/23 08:36:54;;;;;;;15.00;7.75;;;5.60;99.90;;;;;;5031782;28;20021;-41
2021/11/23 08:39:20;;;;;;;13.65;8.13;;;5.70;99.90;;;;;;5031566;28;20492;-41
2021/11/23 08:41:46;;;;;;;17.88;8.02;;;5.70;99.90;;;;;;5031674;28;20037;-41
2021/11/23 08:44:12;;;;;;;14.65;7.30;;;5.70;99.90;;;;;;5032571;28;20384;-42
2021/11/23 08:46:38;;;;;;;14.45;7.82;;;5.80;99.90;;;;;;5033011;28;20030;-41
2021/11/23 08:49:04;;;;;;;15.63;7.13;;;5.80;99.90;;;;;;5032045;28;20050;-42
2021/11/23 08:51:34;;;;;;;10.25;6.60;;;5.80;99.90;;;;;;5032843;28;20021;-41
2021/11/23 08:53:59;;;;;;;11.73;6.57;;;5.90;99.90;;;;;;5033052;28;20068;-42
2021/11/23 08:56:29;;;;;;;16.90;7.85;;;6.00;99.90;;;;;;5032804;28;20057;-42
2021/11/23 08:58:56;;;;;;;12.13;6.35;;;6.00;99.90;;;;;;5032711;28;20465;-42
2021/11/23 09:01:25;;;;;;;12.05;6.93;;;6.10;99.90;;;;;;5032876;28;20026;-41
2021/11/23 09:03:52;;;;;;;12.38;6.82;;;6.10;99.90;;;;;;5031526;28;20200;-42
2021/11/23 09:06:18;;;;;;;11.80;5.85;;;6.10;99.90;;;;;;5032717;28;20053;-41
2021/11/23 09:08:52;;;;;;;13.55;6.72;;;6.10;99.90;;;;;;5032747;28;20061;-42
2021/11/23 09:11:17;;;;;;;11.85;6.70;;;6.20;99.90;;;;;;5032631;28;20508;-44
2021/11/23 09:13:43;;;;;;;12.15;6.97;;;6.30;99.90;;;;;;5032588;28;20037;-41
2021/11/23 09:16:08;;;;;;;11.40;5.93;;;6.30;99.90;;;;;;5032673;28;20377;-41
2021/11/23 09:18:34;;;;;;;13.65;7.03;;;6.30;99.90;;;;;;5031284;28;20036;-42
2021/11/23 09:20:59;;;;;;;14.50;7.60;;;6.40;99.90;;;;;;5032642;28;20032;-44
2021/11/23 09:23:26;;;;;;;11.88;7.15;;;6.40;99.90;;;;;;5032637;28;20032;-41
2021/11/23 09:25:51;;;;;;;16.23;8.07;;;6.40;99.90;;;;;;5032389;28;20412;-42
2021/11/23 09:28:17;;;;;;;12.27;6.45;;;6.50;99.90;;;;;;5032474;28;20067;-42
2021/11/23 09:30:43;;;;;;;13.73;6.85;;;6.50;99.90;;;;;;5032468;28;20060;-42
2021/11/23 09:33:09;;;;;;;11.80;6.75;;;6.60;99.90;;;;;;5031133;28;20034;-42
2021/11/23 09:35:35;;;;;;;11.60;6.72;;;6.60;99.90;;;;;;5032392;28;20029;-42
2021/11/23 09:38:01;;;;;;;13.30;6.70;;;6.70;99.90;;;;;;5032398;28;20137;-42
2021/11/23 09:40:29;;;;;;;15.45;7.05;;;6.70;99.90;;;;;;5032463;28;20030;-42
2021/11/23 09:42:55;;;;;;;13.80;7.05;;;6.80;99.90;;;;;;5032560;28;20431;-42
2021/11/23 09:45:21;;;;;;;14.55;7.03;;;6.80;99.90;;;;;;5032488;28;20450;-41
2021/11/23 09:47:47;;;;;;;10.60;6.60;;;6.90;99.90;;;;;;5032224;28;20068;-42
2021/11/23 09:50:13;;;;;;;12.77;6.57;;;6.90;99.90;;;;;;5031110;28;20032;-42
2021/11/23 09:52:40;;;;;;;17.58;7.28;;;6.90;99.90;;;;;;5032253;28;20021;-41
2021/11/23 09:55:09;;;;;;;14.70;8.50;;;7.00;99.90;;;;;;5032213;28;20193;-44
2021/11/23 09:57:34;;;;;;;15.73;7.07;;;7.00;99.90;;;;;;5032275;28;20544;-42
2021/11/23 10:00:04;;;;;;;12.07;7.35;;;7.00;99.90;;;;;;5032215;28;20064;-42
2021/11/23 10:02:33;;;;;;;13.15;7.28;;;7.00;99.90;;;;;;5032221;28;20030;-42
2021/11/23 10:05:06;;;;;;;14.93;7.88;;;7.00;99.90;;;;;;5030941;28;20038;-42
2021/11/23 10:07:40;;;;;;;12.52;6.95;;;7.10;99.90;;;;;;5031790;28;20032;-42
2021/11/23 10:10:27;;;;;;;9.70;5.93;;;7.10;99.90;;;;;;5032122;28;20033;-41
2021/11/23 10:12:58;;;;;;;13.57;7.47;;;7.20;99.90;;;;;;5032077;28;20017;-42
2021/11/23 10:15:35;;;;;;;12.65;7.55;;;7.20;99.90;;;;;;5030859;28;20030;-42
2021/11/23 10:18:10;;;;;;;12.88;6.90;;;7.20;99.90;;;;;;5031968;28;20488;-42
2021/11/23 10:20:45;;;;;;;13.63;7.00;;;7.20;99.90;;;;;;5032232;28;20346;-42
2021/11/23 10:23:37;;;;;;;12.52;6.55;;;7.20;99.90;;;;;;5033241;28;20480;-42
2021/11/23 10:26:12;;;;;;;11.05;6.43;;;7.20;99.90;;;;;;5035616;28;20029;-42
2021/11/23 10:28:39;;;;;;;12.23;6.90;;;7.30;99.90;;;;;;5035374;28;20485;-42
2021/11/23 10:31:06;;;;;;;13.30;6.53;;;7.30;99.90;;;;;;5035584;28;20037;-42
2021/11/23 10:33:34;;;;;;;9.73;5.35;;;7.30;99.90;;;;;;5034337;28;20047;-42
2021/11/23 10:36:03;;;;;;;13.02;6.53;;;7.40;99.90;;;;;;5035586;28;20029;-42
2021/11/23 10:38:30;;;;;;;10.85;6.10;;;7.40;99.90;;;;;;5035438;28;20204;-42
2021/11/23 10:40:56;;;;;;;13.98;5.68;;;7.40;99.90;;;;;;5035355;28;20064;-43
2021/11/23 10:43:23;;;;;;;9.95;5.55;;;7.50;99.90;;;;;;5035332;28;20473;-42
2021/11/23 10:45:51;;;;;;;11.05;6.05;;;7.50;99.90;;;;;;5035001;28;20032;-42
2021/11/23 10:48:20;;;;;;;10.30;6.40;;;7.50;99.90;;;;;;5034231;28;20029;-42
2021/11/23 10:51:03;;;;;;;13.18;6.80;;;7.50;99.90;;;;;;5035149;28;20097;-42
2021/11/23 10:53:29;;;;;;;9.82;6.32;;;7.60;99.90;;;;;;5035125;28;20022;-42
2021/11/23 10:56:04;;;;;;;11.45;5.93;;;7.60;99.90;;;;;;5035030;28;20017;-43
2021/11/23 10:58:29;;;;;;;11.57;5.55;;;7.70;99.90;;;;;;5035074;28;20021;-40
2021/11/23 11:00:55;;;;;;;12.60;6.30;;;7.70;99.90;;;;;;5035087;28;20018;-42
2021/11/23 11:03:22;;;;;;;12.05;6.07;;;7.80;99.90;;;;;;5034102;28;20057;-41
2021/11/23 11:05:49;;;;;;;10.45;5.93;;;7.80;99.90;;;;;;5034849;28;20017;-43
2021/11/23 11:08:20;;;;;;;10.43;6.32;;;7.80;99.90;;;;;;5034755;28;20029;-42
2021/11/23 11:10:48;;;;;;;9.40;5.78;;;7.80;99.90;;;;;;5034650;28;20057;-41
2021/11/23 11:13:18;;;;;;;13.10;6.22;;;7.80;99.90;;;;;;5034868;28;20017;-44
2021/11/23 11:15:52;;;;;;;8.52;5.18;;;7.80;99.90;;;;;;5034481;28;20104;-42
2021/11/23 11:18:19;;;;;;;10.82;5.75;;;7.90;99.90;;;;;;5033849;28;20416;-44
2021/11/23 11:20:52;;;;;;;12.63;6.05;;;7.90;99.90;;;;;;5034454;28;20353;-42
2021/11/23 11:23:23;;;;;;;11.13;6.53;;;7.90;99.90;;;;;;5034624;28;20026;-42
2021/11/23 11:28:40;;;;;;;10.15;5.97;;;8.00;99.90;;;;;;5013401;28;20068;-41
2021/11/23 11:31:07;;;;;;;10.13;5.40;;;8.00;99.90;;;;;;5014302;28;20629;-43
2021/11/23 11:33:34;;;;;;;8.50;5.45;;;8.00;99.90;;;;;;5024639;28;20037;-42
2021/11/23 11:36:01;;;;;;;9.07;5.43;;;8.00;99.90;;;;;;5031595;28;20564;-43
2021/11/23 11:38:31;;;;;;;10.18;6.22;;;8.00;99.90;;;;;;5032644;28;20044;-44
2021/11/23 11:41:06;;;;;;;8.10;5.00;;;8.10;99.90;;;;;;5032607;28;20029;-43
2021/11/23 11:43:33;;;;;;;8.55;5.68;;;8.10;99.90;;;;;;5032804;28;20026;-43
2021/11/23 11:45:59;;;;;;;11.88;6.07;;;8.10;99.90;;;;;;5032342;28;20029;-43
2021/11/23 11:48:30;;;;;;;12.18;6.25;;;8.10;99.90;;;;;;5031682;28;20425;-42
2021/11/23 11:51:07;;;;;;;10.48;6.07;;;8.20;99.90;;;;;;5032415;28;20022;-42
2021/11/23 11:53:44;;;;;;;9.10;5.65;;;8.20;99.90;;;;;;5032690;28;20096;-43
2021/11/23 11:56:14;;;;;;;10.10;6.22;;;8.20;99.90;;;;;;5032192;28;20071;-42
2021/11/23 11:58:55;;;;;;;10.85;5.90;;;8.20;99.90;;;;;;5032370;28;20569;-41
2021/11/23 12:01:31;;;;;;;10.32;6.07;;;8.20;99.90;;;;;;5032486;28;20109;-42
2021/11/23 12:04:14;;;;;;;9.07;5.72;;;8.20;99.90;;;;;;5030644;28;20041;-44
2021/11/23 12:06:54;;;;;;;10.55;5.90;;;8.20;99.90;;;;;;5032107;28;20029;-41
2021/11/23 12:09:43;;;;;;;11.35;6.20;;;8.20;99.90;;;;;;5032282;28;20358;-42
2021/11/23 12:12:09;;;;;;;9.18;6.13;;;8.20;99.90;;;;;;5030889;28;20388;-45
2021/11/23 12:14:54;;;;;;;10.75;5.82;;;8.20;99.90;;;;;;5032163;28;20026;-43
2021/11/23 12:17:49;;;;;;;10.30;6.28;;;8.20;99.90;;;;;;5031943;28;20028;-48
2021/11/23 12:20:32;;;;;;;10.52;5.80;;;8.20;99.90;;;;;;5031447;28;20414;-41
2021/11/23 12:23:20;;;;;;;13.77;6.88;;;8.20;99.90;;;;;;5031868;28;20464;-42
2021/11/23 12:25:58;;;;;;;11.85;6.43;;;8.20;99.90;;;;;;5032047;28;20033;-42
2021/11/23 12:28:25;;;;;;;9.82;5.78;;;8.20;99.90;;;;;;5033188;28;20143;-42
2021/11/23 12:30:52;;;;;;;11.02;6.43;;;8.30;99.90;;;;;;5033242;28;20575;-42
2021/11/23 12:33:18;;;;;;;10.70;6.10;;;8.30;99.90;;;;;;5031702;28;20037;-42
2021/11/23 12:35:44;;;;;;;9.60;5.85;;;8.30;99.90;;;;;;5033105;28;20483;-42
2021/11/23 12:38:28;;;;;;;10.68;6.35;;;8.30;99.90;;;;;;5033134;28;20143;-41
2021/11/23 12:40:55;;;;;;;11.23;6.53;;;8.30;99.90;;;;;;5033413;28;20373;-43
2021/11/23 12:43:33;;;;;;;9.75;6.70;;;8.30;99.90;;;;;;5033143;28;20034;-41
2021/11/23 12:45:59;;;;;;;13.43;6.95;;;8.30;99.90;;;;;;5032690;28;20070;-42
2021/11/23 12:48:32;;;;;;;9.48;6.07;;;8.30;99.90;;;;;;5032003;28;20093;-42